Scappoose, OR (97056)

19:35 PDT le 23 août 2016 (GMT -0700)
4th & E.M. Watts | | Change Station

Alt. 62 ft 45.75 °N, 122.88 °W | Updated 57 seconds ago

Clear
Ciel dégagé
79.0 ° F
Paraît 79 ° F
N
2.2
Vent Variable Vent de Ouest

Aujourd'hui
Haut(e) -- | Bas -- ° F
--% Risque de précip.
Hier
Haut(e) -- | Bas -- ° F
Precip. -- pouce
Pression 30.08 pouce
Visibilité 10.0 Miles terrestres
Nuages Ciel dégagé
indice de chaleur 79 ° F
Point de rosée 50 ° F
Humidité 37%
Précipitations 0.00 pouce
Profondeur de la couche neigeuse Non disponible.
6:22 AM 8:05 PM
Lune gibbeuse décroissante, 62% visible
METAR KSPB 240153Z AUTO 33007KT 10SM CLR 28/08 A3008 RMK AO2 SLP185 T02780078
Pression 30.08 pouce
Visibilité 10.0 Miles terrestres
Nuages Ciel dégagé
indice de chaleur 79 ° F
Point de rosée 50 ° F
Humidité 37%
Précipitations 0.00 pouce
Profondeur de la couche neigeuse Non disponible.
6:22 AM 8:05 PM
Lune gibbeuse décroissante, 62% visible
METAR KSPB 240153Z AUTO 33007KT 10SM CLR 28/08 A3008 RMK AO2 SLP185 T02780078

10-Day Weather Forecast

Almanac

Astronomie

Aug. 23, 2016 Lever Coucher
Temps réel
Crépuscule civil
Crépuscule nautique
Crépuscule astronomique
Lune
Durée de lumière visible
Longueur du jour
Tomorrow will be .
, % of the Moon is Illuminated

Extrêmes aujourd'hui

State Highs State Lows

Community

WunderPhotos

Upload Photos

1,934,528 Photos téléchargées !

WunderBlog® & News

Nearby

Qualité de l'air

  Qualité de l'air Indice de la qualité de l'air Polluant
Not available.

Épaisseur de neige

Station Depth Altitude

Activité sismique

Ville Distance Mag. Time & Date
Minimum magnitude displayed is 2.5.

Températures des eaux côtières

Lieu Température

Stations

Stations météo à proximité

Emplacement de la station Température Refroidissement éolien Point de rosée Humidité Vent Precip. Alt. Mise à jour Type
                   

Watches & Warnings

There are currently no watches in effect.